Time;durP1;ratioP1;P1;durP2;ratioP2;P2;SDS_P1;SDS_P2;PMS_P1;PMS_P2;Temp;Humidity;BMP_temperature;BMP_pressure;BME280_temperature;BME280_humidity;BME280_pressure;Samples;Min_cycle;Max_cycle;Signal;HPM_P1;HPM_P2
2021/01/20 00:02:10;;;;;;;2.45;1.23;;;;;;;;;;4980721;28;105275;-57
2021/01/20 00:04:36;;;;;;;1.20;1.10;;;;;;;;;;4947638;28;105626;-55
2021/01/20 00:07:01;;;;;;;1.90;1.30;;;;;;;;;;4949180;28;105112;-57
2021/01/20 00:09:27;;;;;;;1.38;1.27;;;;;;;;;;4951355;28;106372;-56
2021/01/20 00:11:52;;;;;;;2.33;1.38;;;;;;;;;;4947876;28;114902;-56
2021/01/20 00:14:18;;;;;;;1.58;1.15;;;;;;;;;;4946010;28;105355;-56
2021/01/20 00:16:44;;;;;;;1.83;1.30;;;;;;;;;;4949690;28;105098;-58
2021/01/20 00:19:10;;;;;;;1.58;1.30;;;;;;;;;;4948388;28;105576;-56
2021/01/20 00:21:36;;;;;;;1.70;1.30;;;;;;;;;;4953411;28;104988;-56
2021/01/20 00:24:01;;;;;;;2.33;1.30;;;;;;;;;;4948583;28;112384;-56
2021/01/20 00:26:27;;;;;;;3.03;1.40;;;;;;;;;;4949727;28;105606;-56
2021/01/20 00:28:52;;;;;;;3.13;1.50;;;;;;;;;;4948329;28;105326;-56
2021/01/20 00:31:17;;;;;;;3.10;1.58;;;;;;;;;;4948500;28;105615;-56
2021/01/20 00:33:43;;;;;;;2.85;1.30;;;;;;;;;;4946778;28;105665;-56
2021/01/20 00:36:09;;;;;;;3.05;1.55;;;;;;;;;;4948424;28;106800;-57
2021/01/20 00:38:34;;;;;;;3.08;1.48;;;;;;;;;;4948585;28;105597;-57
2021/01/20 00:41:00;;;;;;;2.42;1.38;;;;;;;;;;4948229;28;105050;-57
2021/01/20 00:43:25;;;;;;;2.33;1.30;;;;;;;;;;4949074;28;105728;-56
2021/01/20 00:45:51;;;;;;;2.78;1.30;;;;;;;;;;4977573;28;108605;-55
2021/01/20 00:48:17;;;;;;;1.75;1.20;;;;;;;;;;4948412;28;105747;-58
2021/01/20 00:50:42;;;;;;;2.70;1.38;;;;;;;;;;4978320;28;108779;-55
2021/01/20 00:53:08;;;;;;;3.55;1.40;;;;;;;;;;4978823;28;105529;-54
2021/01/20 00:55:33;;;;;;;3.88;1.50;;;;;;;;;;4981250;28;105066;-55
2021/01/20 00:57:59;;;;;;;2.92;1.40;;;;;;;;;;4949143;28;106703;-56
2021/01/20 01:00:25;;;;;;;3.75;1.60;;;;;;;;;;4952205;28;105364;-54
2021/01/20 01:02:50;;;;;;;2.10;1.40;;;;;;;;;;4978792;28;106934;-53
2021/01/20 01:05:18;;;;;;;2.53;1.40;;;;;;;;;;4977804;28;108188;-55
2021/01/20 01:07:47;;;;;;;2.10;1.40;;;;;;;;;;4978601;28;105121;-53
2021/01/20 01:10:13;;;;;;;3.17;1.20;;;;;;;;;;4980514;28;108389;-56
2021/01/20 01:13:01;;;;;;;2.53;1.50;;;;;;;;;;4941131;28;105454;-55
2021/01/20 01:15:29;;;;;;;2.00;1.13;;;;;;;;;;4947851;28;104948;-54
2021/01/20 01:17:54;;;;;;;2.65;1.23;;;;;;;;;;4961654;28;107380;-54
2021/01/20 01:20:20;;;;;;;2.35;1.30;;;;;;;;;;4952617;28;108528;-55
2021/01/20 01:22:45;;;;;;;5.00;1.60;;;;;;;;;;4946892;28;105037;-55
2021/01/20 01:25:14;;;;;;;1.83;1.10;;;;;;;;;;4952500;28;107668;-54
2021/01/20 01:27:44;;;;;;;2.25;1.45;;;;;;;;;;4939771;28;105016;-55
2021/01/20 01:30:12;;;;;;;2.70;1.20;;;;;;;;;;4956079;28;107848;-55
2021/01/20 01:32:40;;;;;;;2.50;1.40;;;;;;;;;;4955421;28;107530;-56
2021/01/20 01:35:11;;;;;;;3.67;1.38;;;;;;;;;;4981718;28;105306;-54
2021/01/20 01:37:39;;;;;;;1.67;1.27;;;;;;;;;;4980127;28;108017;-55
2021/01/20 01:40:08;;;;;;;1.73;1.33;;;;;;;;;;4949206;28;105270;-55
2021/01/20 01:42:40;;;;;;;2.67;1.33;;;;;;;;;;4969176;28;105430;-55
2021/01/20 01:45:06;;;;;;;2.58;1.20;;;;;;;;;;4949024;28;105525;-54
2021/01/20 01:47:32;;;;;;;3.13;1.52;;;;;;;;;;4979893;28;105050;-55
2021/01/20 01:50:00;;;;;;;2.90;1.50;;;;;;;;;;4966331;28;106671;-56
2021/01/20 01:52:29;;;;;;;3.45;1.42;;;;;;;;;;4952755;28;105529;-55
2021/01/20 01:55:13;;;;;;;2.17;1.08;;;;;;;;;;4949688;28;105014;-55
2021/01/20 01:58:04;;;;;;;2.08;1.30;;;;;;;;;;4939723;28;105519;-55
2021/01/20 02:00:33;;;;;;;2.85;1.38;;;;;;;;;;4920329;28;108413;-53
2021/01/20 02:03:09;;;;;;;3.17;1.50;;;;;;;;;;4937110;28;105472;-55
2021/01/20 02:05:35;;;;;;;1.88;1.20;;;;;;;;;;4925638;28;108390;-55
2021/01/20 02:08:03;;;;;;;2.30;1.23;;;;;;;;;;4949998;28;105435;-54
2021/01/20 02:10:33;;;;;;;1.90;1.27;;;;;;;;;;4952373;28;107350;-55
2021/01/20 02:13:28;;;;;;;2.08;1.30;;;;;;;;;;4950392;28;106734;-56
2021/01/20 02:16:22;;;;;;;2.97;1.58;;;;;;;;;;4954774;28;105084;-55
2021/01/20 02:18:51;;;;;;;2.28;1.25;;;;;;;;;;4948553;28;108040;-55
2021/01/20 02:21:44;;;;;;;1.30;1.20;;;;;;;;;;4937200;28;106908;-55
2021/01/20 02:24:33;;;;;;;2.22;1.40;;;;;;;;;;4952148;28;105077;-55
2021/01/20 02:27:28;;;;;;;2.40;1.20;;;;;;;;;;4949666;28;107548;-55
2021/01/20 02:30:01;;;;;;;1.98;1.38;;;;;;;;;;4953497;28;108489;-57
2021/01/20 02:32:54;;;;;;;2.33;1.30;;;;;;;;;;4945461;28;105190;-56
2021/01/20 02:35:40;;;;;;;1.67;1.05;;;;;;;;;;4946923;28;105493;-55
2021/01/20 02:38:05;;;;;;;2.88;1.40;;;;;;;;;;4922560;28;105100;-57
2021/01/20 02:40:49;;;;;;;3.17;1.30;;;;;;;;;;4933819;28;104962;-56
2021/01/20 02:43:45;;;;;;;2.50;1.60;;;;;;;;;;4952934;28;106732;-57
2021/01/20 02:46:26;;;;;;;1.80;1.15;;;;;;;;;;4949092;28;105662;-56
2021/01/20 02:48:53;;;;;;;2.25;1.40;;;;;;;;;;4934822;28;106910;-55
2021/01/20 02:51:48;;;;;;;1.92;1.40;;;;;;;;;;4932826;28;108197;-56
2021/01/20 02:54:32;;;;;;;2.83;1.40;;;;;;;;;;4951461;28;104998;-56
2021/01/20 02:57:33;;;;;;;2.10;1.30;;;;;;;;;;4918723;28;106457;-56
2021/01/20 03:00:05;;;;;;;;;;;;;;;;;;4948129;28;105080;-56
2021/01/20 03:02:39;;;;;;;1.85;1.40;;;;;;;;;;4948456;28;105695;-55
2021/01/20 03:05:05;;;;;;;2.95;1.40;;;;;;;;;;4932030;28;105108;-56
2021/01/20 03:07:31;;;;;;;3.00;1.60;;;;;;;;;;4946988;28;105348;-56
2021/01/20 03:09:56;;;;;;;2.45;1.35;;;;;;;;;;4935960;28;105669;-56
2021/01/20 03:12:31;;;;;;;2.00;1.38;;;;;;;;;;4931015;28;117645;-56
2021/01/20 03:14:59;;;;;;;2.55;1.58;;;;;;;;;;4963588;28;107636;-55
2021/01/20 03:17:29;;;;;;;2.60;1.40;;;;;;;;;;4983478;28;104976;-55
2021/01/20 03:19:55;;;;;;;2.22;1.58;;;;;;;;;;4947421;28;105535;-57
2021/01/20 03:22:20;;;;;;;2.25;1.35;;;;;;;;;;4948870;28;122200;-56
2021/01/20 03:24:45;;;;;;;2.13;1.50;;;;;;;;;;4978646;28;124404;-53
2021/01/20 03:27:11;;;;;;;2.08;1.67;;;;;;;;;;4948829;28;105105;-55
2021/01/20 03:29:36;;;;;;;1.95;1.33;;;;;;;;;;4950248;28;121410;-57
2021/01/20 03:32:02;;;;;;;1.73;1.50;;;;;;;;;;4952186;28;105201;-57
2021/01/20 03:34:27;;;;;;;2.08;1.50;;;;;;;;;;4947900;28;105547;-57
2021/01/20 03:36:53;;;;;;;2.20;1.50;;;;;;;;;;4951332;28;120894;-56
2021/01/20 03:39:18;;;;;;;2.83;1.70;;;;;;;;;;4948754;28;108884;-56
2021/01/20 03:41:43;;;;;;;2.65;1.63;;;;;;;;;;4948181;28;106451;-57
2021/01/20 03:44:09;;;;;;;1.75;1.38;;;;;;;;;;4949904;28;120593;-57
2021/01/20 03:46:34;;;;;;;2.42;1.77;;;;;;;;;;4947385;28;108020;-57
2021/01/20 03:49:00;;;;;;;2.15;1.40;;;;;;;;;;4964873;28;105710;-57
2021/01/20 03:51:28;;;;;;;3.10;1.58;;;;;;;;;;4948135;28;105514;-57
2021/01/20 03:53:54;;;;;;;2.97;1.67;;;;;;;;;;4948086;28;105213;-57
2021/01/20 03:56:19;;;;;;;2.60;1.60;;;;;;;;;;4947948;28;104992;-56
2021/01/20 03:58:45;;;;;;;2.63;1.85;;;;;;;;;;4951612;28;105006;-57
2021/01/20 04:01:10;;;;;;;3.58;1.70;;;;;;;;;;4949823;28;105417;-57
2021/01/20 04:03:35;;;;;;;2.90;1.80;;;;;;;;;;4947687;28;105260;-55
2021/01/20 04:06:16;;;;;;;2.72;1.80;;;;;;;;;;4980290;28;105696;-57
2021/01/20 04:08:43;;;;;;;2.83;1.73;;;;;;;;;;4948852;28;105022;-54
2021/01/20 04:11:08;;;;;;;2.58;1.70;;;;;;;;;;4947447;28;110426;-54
2021/01/20 04:13:35;;;;;;;3.35;1.70;;;;;;;;;;4949675;28;105050;-58
2021/01/20 04:16:02;;;;;;;4.13;1.80;;;;;;;;;;4948910;28;105385;-56
2021/01/20 04:18:28;;;;;;;3.38;1.80;;;;;;;;;;4948715;28;106180;-56
2021/01/20 04:20:53;;;;;;;2.17;1.50;;;;;;;;;;4953423;28;105035;-57
2021/01/20 04:23:19;;;;;;;2.13;1.60;;;;;;;;;;4947181;28;105020;-58
2021/01/20 04:25:44;;;;;;;2.78;1.80;;;;;;;;;;4945103;28;105042;-57
2021/01/20 04:28:10;;;;;;;3.00;2.13;;;;;;;;;;4947784;28;105130;-56
2021/01/20 04:30:35;;;;;;;3.60;2.25;;;;;;;;;;4946276;28;115433;-56
2021/01/20 04:33:00;;;;;;;2.95;1.60;;;;;;;;;;4949092;28;105322;-57
2021/01/20 04:35:26;;;;;;;2.55;1.55;;;;;;;;;;4949074;28;109421;-56
2021/01/20 04:37:51;;;;;;;2.60;1.40;;;;;;;;;;4946915;28;113189;-55
2021/01/20 04:40:17;;;;;;;2.60;1.73;;;;;;;;;;4948816;28;105569;-56
2021/01/20 04:42:44;;;;;;;2.85;1.60;;;;;;;;;;4949699;28;106129;-57
2021/01/20 04:45:09;;;;;;;2.47;1.38;;;;;;;;;;4946496;28;105134;-55
2021/01/20 04:47:35;;;;;;;2.30;1.50;;;;;;;;;;4947117;28;105447;-57
2021/01/20 04:50:00;;;;;;;2.30;1.35;;;;;;;;;;4947020;28;105812;-54
2021/01/20 04:52:26;;;;;;;2.97;1.50;;;;;;;;;;4930804;28;106485;-56
2021/01/20 04:54:52;;;;;;;2.35;1.40;;;;;;;;;;4937499;28;105770;-54
2021/01/20 04:57:17;;;;;;;1.83;1.45;;;;;;;;;;4945435;28;105783;-57
2021/01/20 04:59:43;;;;;;;1.38;1.20;;;;;;;;;;4947511;28;105098;-56
2021/01/20 05:02:09;;;;;;;2.10;1.30;;;;;;;;;;4952425;28;105994;-56
2021/01/20 05:04:35;;;;;;;1.48;1.17;;;;;;;;;;4952111;28;105338;-56
2021/01/20 05:07:00;;;;;;;1.65;1.30;;;;;;;;;;4933295;28;106802;-56
2021/01/20 05:09:26;;;;;;;3.47;2.60;;;;;;;;;;4949738;28;106513;-54
2021/01/20 05:11:51;;;;;;;10.98;9.25;;;;;;;;;;4949996;28;105897;-56
2021/01/20 05:14:17;;;;;;;22.80;20.50;;;;;;;;;;4934065;28;105154;-56
2021/01/20 05:16:45;;;;;;;60.75;54.55;;;;;;;;;;4949074;28;105127;-56
2021/01/20 05:19:11;;;;;;;65.97;59.38;;;;;;;;;;4950672;28;105024;-56
2021/01/20 05:21:36;;;;;;;67.18;60.35;;;;;;;;;;4951249;28;104947;-56
2021/01/20 05:24:21;;;;;;;67.00;60.40;;;;;;;;;;4954206;28;105256;-56
2021/01/20 05:26:46;;;;;;;69.90;62.92;;;;;;;;;;4953391;28;105042;-57
2021/01/20 05:29:12;;;;;;;73.50;66.10;;;;;;;;;;4950096;28;105065;-54
2021/01/20 05:31:38;;;;;;;68.75;61.75;;;;;;;;;;4981022;28;105087;-56
2021/01/20 05:34:03;;;;;;;70.72;63.55;;;;;;;;;;4934249;28;105698;-56
2021/01/20 05:36:29;;;;;;;67.93;61.10;;;;;;;;;;4964896;28;114489;-56
2021/01/20 05:38:54;;;;;;;73.80;66.40;;;;;;;;;;4949428;28;106351;-56
2021/01/20 05:41:24;;;;;;;76.30;68.70;;;;;;;;;;4954667;28;105159;-56
2021/01/20 05:43:53;;;;;;;71.38;64.32;;;;;;;;;;4948531;28;105069;-56
2021/01/20 05:46:29;;;;;;;72.75;65.32;;;;;;;;;;4952818;28;105007;-55
2021/01/20 05:48:54;;;;;;;76.88;69.07;;;;;;;;;;4949826;28;105041;-56
2021/01/20 05:51:20;;;;;;;75.97;68.40;;;;;;;;;;4951073;28;105055;-56
2021/01/20 05:53:55;;;;;;;72.63;65.30;;;;;;;;;;4982233;28;107115;-56
2021/01/20 05:56:27;;;;;;;74.43;66.93;;;;;;;;;;4947932;28;105817;-56
2021/01/20 05:58:53;;;;;;;72.40;64.95;;;;;;;;;;4949336;28;105554;-56
2021/01/20 06:01:19;;;;;;;72.97;65.55;;;;;;;;;;4955299;28;105007;-56
2021/01/20 06:03:44;;;;;;;80.97;72.70;;;;;;;;;;4933576;28;107407;-56
2021/01/20 06:06:10;;;;;;;78.35;70.60;;;;;;;;;;4954618;28;105089;-56
2021/01/20 06:08:35;;;;;;;78.10;70.30;;;;;;;;;;4935270;28;104995;-53
2021/01/20 06:11:02;;;;;;;80.90;72.85;;;;;;;;;;4951695;28;105009;-56
2021/01/20 06:13:27;;;;;;;80.97;72.72;;;;;;;;;;4952822;28;104960;-56
2021/01/20 06:16:00;;;;;;;82.60;74.25;;;;;;;;;;4949942;28;109358;-56
2021/01/20 06:18:31;;;;;;;80.15;72.07;;;;;;;;;;4966104;28;105324;-56
2021/01/20 06:20:57;;;;;;;79.95;71.85;;;;;;;;;;4948031;28;105076;-56
2021/01/20 06:23:26;;;;;;;81.85;73.55;;;;;;;;;;4950474;28;105728;-56
2021/01/20 06:26:10;;;;;;;82.97;74.50;;;;;;;;;;4938346;28;105785;-57
2021/01/20 06:28:38;;;;;;;82.05;73.75;;;;;;;;;;4948005;28;105747;-57
2021/01/20 06:31:04;;;;;;;83.75;75.25;;;;;;;;;;4968531;28;104963;-56
2021/01/20 06:33:29;;;;;;;83.80;75.35;;;;;;;;;;4965143;28;105697;-55
2021/01/20 06:35:55;;;;;;;82.47;73.97;;;;;;;;;;4947061;28;112175;-56
2021/01/20 06:38:26;;;;;;;81.55;73.25;;;;;;;;;;4949004;28;105062;-56
2021/01/20 06:40:52;;;;;;;81.72;73.43;;;;;;;;;;4951339;28;104966;-56
2021/01/20 06:43:37;;;;;;;80.90;72.68;;;;;;;;;;4949754;28;109741;-57
2021/01/20 06:46:09;;;;;;;80.13;71.95;;;;;;;;;;4936670;28;105086;-57
2021/01/20 06:48:54;;;;;;;75.32;67.68;;;;;;;;;;4948497;28;109100;-57
2021/01/20 06:51:23;;;;;;;78.63;70.53;;;;;;;;;;4946993;28;105166;-57
2021/01/20 06:54:01;;;;;;;79.75;71.75;;;;;;;;;;4968095;28;105039;-57
2021/01/20 06:56:47;;;;;;;77.70;69.75;;;;;;;;;;4967030;28;106911;-57
2021/01/20 06:59:30;;;;;;;77.25;69.28;;;;;;;;;;4951434;28;105057;-57
2021/01/20 07:02:02;;;;;;;72.78;65.35;;;;;;;;;;4980074;28;105646;-55
2021/01/20 07:04:37;;;;;;;71.30;64.07;;;;;;;;;;4949946;28;105561;-57
2021/01/20 07:07:14;;;;;;;66.68;59.85;;;;;;;;;;4950286;28;105187;-57
2021/01/20 07:10:07;;;;;;;66.47;59.58;;;;;;;;;;4952473;28;105031;-57
2021/01/20 07:12:32;;;;;;;67.47;60.38;;;;;;;;;;4974915;28;105580;-56
2021/01/20 07:14:57;;;;;;;67.32;60.38;;;;;;;;;;4949596;28;105171;-55
2021/01/20 07:17:23;;;;;;;66.03;59.22;;;;;;;;;;4919314;28;120491;-57
2021/01/20 07:19:49;;;;;;;65.85;59.05;;;;;;;;;;4947799;28;105130;-57
2021/01/20 07:22:15;;;;;;;65.05;58.47;;;;;;;;;;4983369;28;105631;-57
2021/01/20 07:24:41;;;;;;;65.30;58.60;;;;;;;;;;4978139;28;105347;-57
2021/01/20 07:27:07;;;;;;;64.95;58.17;;;;;;;;;;4949101;28;105134;-55
2021/01/20 07:29:33;;;;;;;63.35;56.80;;;;;;;;;;4982542;28;105532;-57
2021/01/20 07:31:58;;;;;;;61.65;55.40;;;;;;;;;;4950907;28;105077;-54
2021/01/20 07:34:33;;;;;;;60.65;54.45;;;;;;;;;;4930882;28;105413;-56
2021/01/20 07:37:11;;;;;;;61.30;55.00;;;;;;;;;;4950156;28;108394;-58
2021/01/20 07:39:37;;;;;;;60.55;54.33;;;;;;;;;;4952621;28;105166;-57
2021/01/20 07:42:05;;;;;;;58.95;52.85;;;;;;;;;;4952209;28;105701;-56
2021/01/20 07:44:32;;;;;;;53.50;47.95;;;;;;;;;;4953316;28;105097;-56
2021/01/20 07:46:58;;;;;;;61.85;55.45;;;;;;;;;;4950162;28;105073;-57
2021/01/20 07:49:24;;;;;;;3.42;1.85;;;;;;;;;;4952069;28;104955;-55
2021/01/20 07:52:05;;;;;;;1.50;1.15;;;;;;;;;;4983878;28;105188;-58
2021/01/20 07:54:37;;;;;;;1.23;1.13;;;;;;;;;;4952013;28;105135;-55
2021/01/20 07:57:03;;;;;;;2.03;1.35;;;;;;;;;;4951824;28;105546;-57
2021/01/20 07:59:29;;;;;;;1.40;1.20;;;;;;;;;;4987689;28;105648;-56
2021/01/20 08:02:05;;;;;;;1.38;1.15;;;;;;;;;;4966155;28;107125;-58
2021/01/20 08:04:30;;;;;;;1.50;1.20;;;;;;;;;;4953380;28;105534;-56
2021/01/20 08:06:56;;;;;;;2.20;1.30;;;;;;;;;;4952544;28;105516;-56
2021/01/20 08:09:28;;;;;;;2.30;1.25;;;;;;;;;;4953711;28;112816;-55
2021/01/20 08:11:53;;;;;;;1.42;0.98;;;;;;;;;;4932469;28;105355;-57
2021/01/20 08:14:19;;;;;;;1.52;1.00;;;;;;;;;;4953241;28;105414;-56
2021/01/20 08:16:44;;;;;;;1.02;0.90;;;;;;;;;;4949603;28;105326;-56
2021/01/20 08:19:10;;;;;;;1.50;1.10;;;;;;;;;;4950304;28;104989;-56
2021/01/20 08:21:35;;;;;;;1.50;1.10;;;;;;;;;;4949934;28;105033;-56
2021/01/20 08:24:05;;;;;;;1.10;1.00;;;;;;;;;;4937217;28;107172;-57
2021/01/20 08:26:31;;;;;;;1.13;1.02;;;;;;;;;;4982666;28;105091;-57
2021/01/20 08:29:07;;;;;;;1.45;0.80;;;;;;;;;;4982776;28;105031;-56
2021/01/20 08:31:32;;;;;;;2.53;1.10;;;;;;;;;;4952675;28;105092;-57
2021/01/20 08:34:22;;;;;;;1.60;1.00;;;;;;;;;;4950603;28;104907;-54
2021/01/20 08:36:58;;;;;;;1.33;1.02;;;;;;;;;;4951474;28;105573;-56
2021/01/20 08:39:24;;;;;;;1.20;0.95;;;;;;;;;;4951266;28;105072;-55
2021/01/20 08:42:23;;;;;;;1.25;0.90;;;;;;;;;;4950703;28;104996;-57
2021/01/20 08:45:13;;;;;;;1.10;1.00;;;;;;;;;;4891221;28;105401;-54
2021/01/20 08:47:47;;;;;;;2.03;1.40;;;;;;;;;;4950349;28;105142;-53
2021/01/20 08:50:37;;;;;;;2.83;1.70;;;;;;;;;;4949734;28;105613;-56
2021/01/20 08:53:04;;;;;;;2.15;1.35;;;;;;;;;;4935413;28;105216;-56
2021/01/20 08:55:36;;;;;;;1.70;1.38;;;;;;;;;;4952081;28;105122;-55
2021/01/20 08:58:21;;;;;;;1.38;1.20;;;;;;;;;;4949461;28;105043;-56
2021/01/20 09:01:00;;;;;;;1.30;1.10;;;;;;;;;;4948295;28;105060;-54
2021/01/20 09:03:36;;;;;;;2.47;1.60;;;;;;;;;;4950801;28;105069;-57
2021/01/20 09:06:06;;;;;;;2.10;1.45;;;;;;;;;;4948885;28;105742;-56
2021/01/20 09:08:35;;;;;;;2.33;1.23;;;;;;;;;;4968498;28;106816;-57
2021/01/20 09:11:00;;;;;;;1.83;1.10;;;;;;;;;;4920437;28;106153;-57
2021/01/20 09:13:26;;;;;;;2.03;1.30;;;;;;;;;;4949387;28;106693;-55
2021/01/20 09:15:54;;;;;;;1.60;1.35;;;;;;;;;;4949972;28;105085;-55
2021/01/20 09:18:20;;;;;;;1.92;1.15;;;;;;;;;;4949353;28;105714;-57
2021/01/20 09:20:46;;;;;;;1.45;1.20;;;;;;;;;;4949317;28;105417;-58
2021/01/20 09:23:11;;;;;;;2.40;1.55;;;;;;;;;;4950073;28;105007;-58
2021/01/20 09:25:37;;;;;;;2.70;2.08;;;;;;;;;;4952179;28;105679;-57
2021/01/20 09:28:02;;;;;;;3.30;1.88;;;;;;;;;;4981480;28;104938;-57
2021/01/20 09:30:29;;;;;;;3.67;2.35;;;;;;;;;;4954622;28;105410;-57
2021/01/20 09:32:54;;;;;;;2.10;1.75;;;;;;;;;;4950433;28;105113;-56
2021/01/20 09:35:20;;;;;;;2.47;1.63;;;;;;;;;;4952781;28;104977;-58
2021/01/20 09:37:46;;;;;;;2.97;1.52;;;;;;;;;;4947911;28;105104;-57
2021/01/20 09:40:13;;;;;;;2.55;1.42;;;;;;;;;;4947877;28;105904;-56
2021/01/20 09:42:39;;;;;;;1.65;1.20;;;;;;;;;;4950052;28;105882;-56
2021/01/20 09:45:06;;;;;;;1.50;1.30;;;;;;;;;;4952373;28;105081;-57
2021/01/20 09:47:32;;;;;;;2.17;1.20;;;;;;;;;;4935663;28;107110;-58
2021/01/20 09:49:57;;;;;;;1.98;1.52;;;;;;;;;;4956583;28;105950;-58
2021/01/20 09:52:25;;;;;;;2.20;1.40;;;;;;;;;;4953885;28;105622;-57
2021/01/20 09:54:55;;;;;;;4.45;2.40;;;;;;;;;;4953170;28;105129;-57
2021/01/20 09:57:23;;;;;;;3.97;2.42;;;;;;;;;;4953862;28;105627;-56
2021/01/20 09:59:49;;;;;;;2.72;1.90;;;;;;;;;;4954301;28;105560;-57
2021/01/20 10:02:14;;;;;;;1.48;1.20;;;;;;;;;;4986470;28;105454;-57
2021/01/20 10:04:40;;;;;;;2.13;1.25;;;;;;;;;;4953717;28;105517;-57
2021/01/20 10:07:06;;;;;;;1.55;0.98;;;;;;;;;;4953510;28;108399;-55
2021/01/20 10:09:32;;;;;;;2.20;1.05;;;;;;;;;;4954522;28;108634;-57
2021/01/20 10:11:58;;;;;;;1.05;0.90;;;;;;;;;;4956320;28;105131;-56
2021/01/20 10:14:23;;;;;;;1.10;1.00;;;;;;;;;;4982766;28;105559;-56
2021/01/20 10:16:49;;;;;;;1.13;0.90;;;;;;;;;;4952209;28;114640;-55
2021/01/20 10:19:15;;;;;;;1.98;1.00;;;;;;;;;;4951483;28;105343;-57
2021/01/20 10:21:40;;;;;;;1.00;0.80;;;;;;;;;;4955551;28;105062;-55
2021/01/20 10:24:07;;;;;;;1.10;0.98;;;;;;;;;;4950577;28;105384;-56
2021/01/20 10:26:32;;;;;;;1.02;0.90;;;;;;;;;;4940599;28;105026;-57
2021/01/20 10:28:58;;;;;;;1.13;1.00;;;;;;;;;;4954222;28;105588;-56
2021/01/20 10:31:27;;;;;;;1.55;0.90;;;;;;;;;;4953707;28;105632;-57
2021/01/20 10:33:53;;;;;;;1.00;0.82;;;;;;;;;;4954297;28;105005;-53
2021/01/20 10:36:18;;;;;;;1.75;1.25;;;;;;;;;;4950248;28;107754;-56
2021/01/20 10:38:44;;;;;;;1.20;1.10;;;;;;;;;;4952721;28;105220;-55
2021/01/20 10:41:09;;;;;;;1.30;1.05;;;;;;;;;;4953906;28;105105;-54
2021/01/20 10:43:35;;;;;;;1.55;1.13;;;;;;;;;;4954694;28;106183;-57
2021/01/20 10:46:00;;;;;;;1.48;1.20;;;;;;;;;;4952191;28;105575;-57
2021/01/20 10:48:26;;;;;;;1.48;1.10;;;;;;;;;;4952461;28;105240;-57
2021/01/20 10:50:51;;;;;;;2.30;1.20;;;;;;;;;;4951204;28;105666;-57
2021/01/20 10:53:16;;;;;;;1.48;1.05;;;;;;;;;;4951128;28;105587;-58
2021/01/20 10:55:47;;;;;;;1.58;1.23;;;;;;;;;;4951136;28;105933;-56
2021/01/20 10:58:12;;;;;;;3.20;1.10;;;;;;;;;;4931419;28;105678;-56
2021/01/20 11:00:38;;;;;;;1.35;1.25;;;;;;;;;;4949272;28;105518;-54
2021/01/20 11:03:03;;;;;;;1.45;1.08;;;;;;;;;;4950029;28;105196;-56
2021/01/20 11:05:29;;;;;;;1.10;1.00;;;;;;;;;;4950923;28;105084;-57
2021/01/20 11:07:54;;;;;;;2.55;1.20;;;;;;;;;;4964067;28;105709;-57
2021/01/20 11:10:20;;;;;;;2.38;1.25;;;;;;;;;;4949736;28;105319;-56
2021/01/20 11:12:46;;;;;;;2.13;1.80;;;;;;;;;;4949372;28;105634;-59
2021/01/20 11:15:12;;;;;;;2.42;1.27;;;;;;;;;;4949436;28;105003;-57
2021/01/20 11:17:37;;;;;;;1.45;0.90;;;;;;;;;;4952405;28;105113;-58
2021/01/20 11:20:03;;;;;;;1.40;1.10;;;;;;;;;;4947436;28;105142;-58
2021/01/20 11:22:29;;;;;;;1.20;1.00;;;;;;;;;;4950981;28;105010;-50
2021/01/20 11:25:00;;;;;;;2.47;1.27;;;;;;;;;;4948081;28;104996;-50
2021/01/20 11:27:29;;;;;;;2.70;1.10;;;;;;;;;;4952165;28;105017;-50
2021/01/20 11:29:55;;;;;;;1.70;1.20;;;;;;;;;;4947661;28;105601;-57
2021/01/20 11:32:20;;;;;;;1.20;1.10;;;;;;;;;;4950172;28;105875;-55
2021/01/20 11:34:46;;;;;;;1.58;1.15;;;;;;;;;;4946161;28;105137;-54
2021/01/20 11:37:11;;;;;;;1.85;1.20;;;;;;;;;;4949624;28;105781;-58
2021/01/20 11:39:37;;;;;;;1.38;1.00;;;;;;;;;;4951996;28;107645;-54
2021/01/20 11:42:03;;;;;;;1.85;1.20;;;;;;;;;;4948191;28;105779;-57
2021/01/20 11:44:28;;;;;;;2.13;1.10;;;;;;;;;;4951018;28;105726;-56
2021/01/20 11:46:54;;;;;;;1.55;1.23;;;;;;;;;;4947866;28;105287;-57
2021/01/20 11:49:19;;;;;;;2.25;1.40;;;;;;;;;;4951719;28;105543;-55
2021/01/20 11:51:45;;;;;;;1.52;1.02;;;;;;;;;;4948193;28;105387;-57
2021/01/20 11:54:10;;;;;;;1.40;1.15;;;;;;;;;;4949710;28;105394;-57
2021/01/20 11:56:36;;;;;;;1.15;1.00;;;;;;;;;;4950264;28;105637;-55
2021/01/20 11:59:02;;;;;;;1.67;1.08;;;;;;;;;;4952038;28;105910;-56
2021/01/20 12:01:33;;;;;;;2.30;1.33;;;;;;;;;;4950863;28;105619;-54
2021/01/20 12:03:59;;;;;;;;;;;;;;;;;;4947319;28;105526;-56
2021/01/20 12:06:24;;;;;;;1.40;1.10;;;;;;;;;;4946228;28;105103;-56
2021/01/20 12:08:50;;;;;;;2.03;1.10;;;;;;;;;;4947826;28;104938;-54
2021/01/20 12:11:15;;;;;;;1.02;0.93;;;;;;;;;;4947354;28;106257;-57
2021/01/20 12:13:41;;;;;;;2.05;1.00;;;;;;;;;;4947913;28;105406;-56
2021/01/20 12:16:06;;;;;;;1.27;1.02;;;;;;;;;;4977864;28;108215;-57
2021/01/20 12:18:32;;;;;;;1.55;1.13;;;;;;;;;;4949301;28;105113;-54
2021/01/20 12:20:59;;;;;;;1.60;1.10;;;;;;;;;;4953200;28;104994;-58
2021/01/20 12:23:27;;;;;;;1.67;1.30;;;;;;;;;;4947786;28;105024;-54
2021/01/20 12:25:53;;;;;;;2.13;1.20;;;;;;;;;;4949404;28;105014;-56
2021/01/20 12:28:19;;;;;;;1.90;1.23;;;;;;;;;;4950102;28;105169;-57
2021/01/20 12:30:44;;;;;;;1.52;1.10;;;;;;;;;;4946732;28;105396;-54
2021/01/20 12:33:10;;;;;;;1.63;1.10;;;;;;;;;;4945554;28;105136;-56
2021/01/20 12:35:35;;;;;;;1.90;1.30;;;;;;;;;;4980276;28;105127;-57
2021/01/20 12:38:03;;;;;;;1.70;1.10;;;;;;;;;;4946279;28;106650;-56
2021/01/20 12:40:31;;;;;;;2.03;1.25;;;;;;;;;;4951854;28;105315;-56
2021/01/20 12:42:57;;;;;;;1.38;1.20;;;;;;;;;;4966553;28;105676;-57
2021/01/20 12:45:22;;;;;;;1.25;1.13;;;;;;;;;;4964411;28;105205;-56
2021/01/20 12:47:48;;;;;;;3.22;1.30;;;;;;;;;;4948073;28;106197;-56
2021/01/20 12:50:16;;;;;;;1.50;1.20;;;;;;;;;;4949545;28;105101;-56
2021/01/20 12:52:42;;;;;;;2.25;1.20;;;;;;;;;;4949090;28;105908;-57
2021/01/20 12:55:08;;;;;;;2.45;1.20;;;;;;;;;;4947075;28;105762;-55
2021/01/20 12:57:33;;;;;;;2.03;1.20;;;;;;;;;;4946280;28;105609;-56
2021/01/20 12:59:58;;;;;;;1.92;1.08;;;;;;;;;;4949392;28;107004;-56
2021/01/20 13:02:24;;;;;;;2.10;1.08;;;;;;;;;;4948180;28;105034;-55
2021/01/20 13:04:49;;;;;;;2.35;1.40;;;;;;;;;;4935027;28;105718;-56
2021/01/20 13:07:15;;;;;;;2.80;1.30;;;;;;;;;;4947246;28;104983;-56
2021/01/20 13:09:41;;;;;;;1.60;1.13;;;;;;;;;;4948438;28;105355;-56
2021/01/20 13:12:06;;;;;;;2.28;1.10;;;;;;;;;;4914854;28;105302;-55
2021/01/20 13:14:32;;;;;;;1.40;1.10;;;;;;;;;;4950321;28;104970;-56
2021/01/20 13:16:58;;;;;;;1.80;1.30;;;;;;;;;;4950984;28;105076;-56
2021/01/20 13:19:23;;;;;;;1.25;1.00;;;;;;;;;;4950981;28;106422;-56
2021/01/20 13:21:49;;;;;;;1.83;1.20;;;;;;;;;;4949969;28;105695;-56
2021/01/20 13:24:14;;;;;;;2.40;1.38;;;;;;;;;;4983931;28;105398;-56
2021/01/20 13:26:40;;;;;;;2.47;1.60;;;;;;;;;;4958079;28;105024;-56
2021/01/20 13:29:05;;;;;;;1.00;0.93;;;;;;;;;;4954592;28;106458;-56
2021/01/20 13:31:31;;;;;;;2.38;1.30;;;;;;;;;;4955460;28;104992;-56
2021/01/20 13:33:56;;;;;;;1.73;1.20;;;;;;;;;;4953370;28;105289;-56
2021/01/20 13:36:22;;;;;;;1.02;0.93;;;;;;;;;;4952769;28;105611;-57
2021/01/20 13:38:47;;;;;;;2.08;1.20;;;;;;;;;;4954850;28;105137;-56
2021/01/20 13:41:13;;;;;;;2.83;1.10;;;;;;;;;;4955042;28;105595;-55
2021/01/20 13:43:38;;;;;;;1.35;1.20;;;;;;;;;;4985688;28;105875;-56
2021/01/20 13:46:04;;;;;;;1.35;1.00;;;;;;;;;;4952651;28;105422;-56
2021/01/20 13:48:29;;;;;;;2.20;1.38;;;;;;;;;;4957380;28;106469;-50
2021/01/20 13:50:55;;;;;;;1.42;1.00;;;;;;;;;;4953718;28;105690;-51
2021/01/20 13:53:20;;;;;;;1.33;1.10;;;;;;;;;;4952609;28;105720;-55
2021/01/20 13:55:45;;;;;;;1.63;1.20;;;;;;;;;;4953390;28;106403;-56
2021/01/20 13:58:11;;;;;;;1.75;1.30;;;;;;;;;;4985786;28;105164;-56
2021/01/20 14:00:36;;;;;;;2.20;1.10;;;;;;;;;;4954595;28;109234;-56
2021/01/20 14:03:02;;;;;;;1.30;1.20;;;;;;;;;;4954510;28;105395;-56
2021/01/20 14:05:27;;;;;;;2.22;1.10;;;;;;;;;;4954151;28;105075;-56
2021/01/20 14:07:53;;;;;;;1.50;1.20;;;;;;;;;;4956944;28;105706;-55
2021/01/20 14:10:19;;;;;;;2.35;1.20;;;;;;;;;;4922661;28;105971;-55
2021/01/20 14:12:44;;;;;;;2.70;1.35;;;;;;;;;;4953837;28;105772;-56
2021/01/20 14:15:10;;;;;;;1.52;1.10;;;;;;;;;;4954131;28;105355;-55
2021/01/20 14:17:35;;;;;;;3.00;1.10;;;;;;;;;;4952146;28;105811;-57
2021/01/20 14:20:03;;;;;;;2.38;1.20;;;;;;;;;;4952532;28;111796;-54
2021/01/20 14:22:31;;;;;;;2.50;1.20;;;;;;;;;;4954079;28;105608;-55
2021/01/20 14:24:58;;;;;;;2.00;1.20;;;;;;;;;;4954323;28;105427;-53
2021/01/20 14:27:24;;;;;;;2.25;1.40;;;;;;;;;;4954283;28;105017;-56
2021/01/20 14:29:49;;;;;;;1.75;1.27;;;;;;;;;;4956731;28;105063;-56
2021/01/20 14:32:15;;;;;;;2.08;1.30;;;;;;;;;;4953656;28;105688;-53
2021/01/20 14:34:40;;;;;;;1.52;1.00;;;;;;;;;;4951563;28;106005;-53